• Join FlightAware (Why Join?)
  • Login
  • US Flag 
11:14PM EST


 

Airport Tracker/Info


-or-


 

Live Flight TrackerFlight Track Log ✈ EJA929 ✈ 30-May-2013 ✈ KXNA - KSAT

Flight Track Log - Related Links

Times and Time Zones

All times are in EDT time to prevent confusion due to time zone crossing. See the EJA929 flight status page for this flight to view local times or setup timezone preferences in your user account.

Time Position Orientation Groundspeed Altitude Reporting Facility
EDT Latitude Longitude Course Direction KTS MPH feet Rate Location/Type
04:21PM 36.1031 -94.6600 243° Southwest 420 483 15,000  Level Memphis Center
04:22PM 36.0600 -94.7631 239° Southwest 384 442 16,400 1,740 Climbing Memphis Center
04:23PM 35.9744 -94.8197 208° Southwest 343 395 18,500 1,560 Climbing Memphis Center
04:25PM 35.7944 -94.9264 206° Southwest 352 405 21,400 1,320 Climbing Fort Worth Center
04:26PM 35.6975 -94.9856 206° Southwest 373 429 22,600 1,200 Climbing Fort Worth Center
04:27PM 35.5906 -95.0525 207° Southwest 390 449 23,900 1,200 Climbing Fort Worth Center
04:28PM 35.4833 -95.1167 206° Southwest 413 475 25,100 1,320 Climbing Fort Worth Center
04:29PM 35.3758 -95.1783 205° Southwest 423 487 26,600 1,500 Climbing Fort Worth Center
04:30PM 35.2686 -95.2419 206° Southwest 423 487 28,100 1,440 Climbing Fort Worth Center
04:31PM 35.1633 -95.3033 205° Southwest 423 487 29,500 1,380 Climbing Fort Worth Center
04:32PM 35.0517 -95.3719 207° Southwest 428 493 30,900 1,320 Climbing Fort Worth Center
04:33PM 34.9403 -95.4378 206° Southwest 434 499 32,200 1,260 Climbing Fort Worth Center
04:34PM 34.8286 -95.5011 205° Southwest 445 512 33,500 1,080 Climbing Fort Worth Center
04:35PM 34.7356 -95.5564 206° Southwest 451 519 34,400 1,140 Climbing Fort Worth Center
04:36PM 34.6008 -95.6300 204° Southwest 466 536 35,800 780 Climbing Fort Worth Center
04:37PM 34.4789 -95.7006 206° Southwest 476 548 36,000 60 Climbing Fort Worth Center
04:38PM 34.3525 -95.7733 205° Southwest 489 563 36,000  Level Fort Worth Center
04:39PM 34.2242 -95.8486 206° Southwest 507 583 36,000  Level Fort Worth Center
04:40PM 34.0956 -95.9186 204° Southwest 512 589 36,000  Level Fort Worth Center
04:41PM 33.9692 -95.9911 205° Southwest 507 583 36,000  Level Fort Worth Center
04:42PM 33.8406 -96.0656 206° Southwest 507 583 36,000  Level Fort Worth Center
04:43PM 33.7100 -96.1400 205° Southwest 513 590 36,000  Level Fort Worth Center
04:44PM 33.5792 -96.2117 205° Southwest 513 590 36,000  Level Fort Worth Center
04:45PM 33.4483 -96.2856 205° Southwest 519 597 36,000  Level Fort Worth Center
04:46PM 33.3194 -96.3594 206° Southwest 519 597 36,000  Level Fort Worth Center
04:47PM 33.1908 -96.4331 206° Southwest 519 597 36,000  Level Fort Worth Center
04:48PM 33.0578 -96.5039 204° Southwest 519 597 36,000  Level Fort Worth Center
04:49PM 32.9308 -96.5769 206° Southwest 519 597 36,000  Level Fort Worth Center
04:50PM 32.7997 -96.6472 204° Southwest 519 597 36,000  Level Fort Worth Center
04:51PM 32.6728 -96.7175 205° Southwest 519 597 36,000  Level Fort Worth Center
04:52PM 32.5417 -96.7925 206° Southwest 519 597 36,000  Level Fort Worth Center
04:53PM 32.4147 -96.8622 205° Southwest 519 597 36,000  Level Fort Worth Center
04:54PM 32.2814 -96.9244 202° Southwest 519 597 36,000  Level Fort Worth Center
04:55PM 32.1417 -96.9692 195° South 519 597 36,000  Level Fort Worth Center
04:56PM 32.0019 -97.0164 196° South 519 597 36,000  Level Fort Worth Center
04:57PM 31.8475 -97.0636 195° South 514 592 36,000  Level Fort Worth Center
04:58PM 31.7244 -97.1056 196° South 514 592 36,000  Level Fort Worth Center
04:59PM 31.6817 -97.1178 194° South 519 597 36,000  Level Houston Center
05:00PM 31.5175 -97.1703 195° South 520 598 36,000  Level Houston Center
05:01PM 31.3769 -97.2150 195° South 519 597 36,000 -240 Level Houston Center
05:02PM 31.2383 -97.2597 195° South 516 594 35,600 -1,200 Descending Houston Center
05:03PM 31.1028 -97.3031 195° South 506 582 33,600 -1,920 Descending Houston Center
05:04PM 30.9703 -97.3519 198° South 518 596 31,600 -2,100 Descending Houston Center
05:05PM 30.8075 -97.3953 193° South 523 602 29,300 -2,100 Descending Houston Center
05:06PM 30.6697 -97.4378 195° South 513 590 27,300 -1,980 Descending Houston Center
05:07PM 30.5308 -97.4808 195° South 512 589 25,300 -2,100 Descending Houston Center
05:08PM 30.3978 -97.5222 195° South 498 573 23,000 -2,220 Descending Houston Center
05:09PM 30.2822 -97.5931 208° Southwest 469 540 20,800 -2,340 Descending Houston Center
05:10PM 30.1583 -97.6817 212° Southwest 447 514 18,200 -2,340 Descending Houston Center
05:11PM 30.0858 -97.7317 211° Southwest 444 511 16,800 -1,980 Descending Houston Center
05:11PM 30.0533 -97.7542 211° Southwest 437 503 16,200 -1,920 Descending Houston Center
05:12PM 29.9872 -97.7997 211° Southwest 395 455 14,900 -1,980 Descending Houston Center
05:12PM 29.9558 -97.8225 212° Southwest 374 430 14,200 -1,620 Descending Houston Center
05:13PM 29.9108 -97.8553 212° Southwest 303 349 13,300 -1,440 Descending Houston Center
05:13PM 29.8881 -97.8797 223° Southwest 299 344 12,700 -1,680 Descending Houston Center
05:14PM 29.8697 -97.9306 247° West 264 304 11,600 -1,740 Descending Houston Center
05:15PM 29.8353 -98.0094 243° Southwest 275 316 9,900 -1,740 Descending Houston Center
05:15PM 29.8197 -98.0478 245° Southwest 281 323 9,100 -1,800 Descending Houston Center
05:16PM 29.8044 -98.0856 245° Southwest 282 325 8,300 -1,680 Descending Houston Center
05:16PM 29.7861 -98.1267 243° Southwest 276 318 7,400 -1,680 Descending Houston Center
05:17PM 29.7697 -98.1622 242° Southwest 272 313 6,600 -1,380 Descending Houston Center
05:17PM 29.7506 -98.2100 245° Southwest 270 311 6,000 -600 Descending Houston Center
05:18PM 29.7356 -98.2458 244° Southwest 266 306 6,000  Level Houston Center
05:18PM 29.7183 -98.2853 243° Southwest 265 305 6,000  Level Houston Center
05:19PM 29.7069 -98.3214 250° West 265 305 6,000 -300 Level Houston Center
05:19PM 29.6983 -98.3731 259° West 266 306 5,700 -1,020 Descending Houston Center
05:20PM 29.6936 -98.4047 260° West 271 312 5,000 -1,560 Descending Houston Center
05:20PM 29.6850 -98.4503 258° West 268 308 4,100 -1,680 Descending Houston Center
05:21PM 29.6803 -98.4883 262° West 268 308 3,300 -1,080 Descending Houston Center
05:21PM 29.6681 -98.5414 255° West 251 289 3,000 -300 Descending Houston Center
05:22PM 29.6533 -98.5611 229° Southwest 202 232 3,000 -120 Level Houston Center
05:23PM 29.6278 -98.5744 204° Southwest 188 216 2,900 -300 Descending Houston Center
05:23PM 29.6103 -98.5711 171° South 159 183 2,700 -720 Descending Houston Center
05:24PM 29.5867 -98.5419 133° Southeast 176 203 2,200 -840 Descending Houston Center
05:24PM 29.5725 -98.5253 134° Southeast 148 170 1,700 -780 Descending Houston Center
05:25PM 29.5617 -98.5089 127° Southeast 144 166 1,400 -660 Descending Houston Center
05:25PM 29.5508 -98.4967 136° Southeast 127 146 1,100 -600 Descending Houston Center
05:26PM 29.5403 -98.4806 127° Southeast 131 151 800 -480 Descending Houston Center
05:28PM 29.5340 -98.4691 180° South  Level Estimated